sensor_id;sensor_type;location;lat;lon;timestamp;temperature;humidity
26691;DHT22;14307;51.718;8.938;2024-01-30T00:00:20;3.50;99.90
26691;DHT22;14307;51.718;8.938;2024-01-30T00:02:47;3.40;99.90
26691;DHT22;14307;51.718;8.938;2024-01-30T00:05:14;3.40;99.90
26691;DHT22;14307;51.718;8.938;2024-01-30T00:07:41;3.30;99.90
26691;DHT22;14307;51.718;8.938;2024-01-30T00:10:08;3.20;99.90
26691;DHT22;14307;51.718;8.938;2024-01-30T00:12:34;3.00;99.90
26691;DHT22;14307;51.718;8.938;2024-01-30T00:15:01;2.80;99.90
26691;DHT22;14307;51.718;8.938;2024-01-30T00:17:30;2.80;99.90
26691;DHT22;14307;51.718;8.938;2024-01-30T00:19:57;2.70;99.90
26691;DHT22;14307;51.718;8.938;2024-01-30T00:22:24;2.50;99.90
26691;DHT22;14307;51.718;8.938;2024-01-30T00:24:51;2.40;99.90
26691;DHT22;14307;51.718;8.938;2024-01-30T00:27:18;2.40;99.90
26691;DHT22;14307;51.718;8.938;2024-01-30T00:29:45;2.60;99.90
26691;DHT22;14307;51.718;8.938;2024-01-30T00:32:14;2.70;99.90
26691;DHT22;14307;51.718;8.938;2024-01-30T00:34:42;2.60;99.90
26691;DHT22;14307;51.718;8.938;2024-01-30T00:37:09;2.60;99.90
26691;DHT22;14307;51.718;8.938;2024-01-30T00:39:35;2.50;99.90
26691;DHT22;14307;51.718;8.938;2024-01-30T00:42:02;2.60;99.90
26691;DHT22;14307;51.718;8.938;2024-01-30T00:44:29;2.60;99.90
26691;DHT22;14307;51.718;8.938;2024-01-30T00:46:56;2.60;99.90
26691;DHT22;14307;51.718;8.938;2024-01-30T00:49:23;2.70;99.90
26691;DHT22;14307;51.718;8.938;2024-01-30T00:51:50;2.80;99.90
26691;DHT22;14307;51.718;8.938;2024-01-30T00:54:17;2.90;99.90
26691;DHT22;14307;51.718;8.938;2024-01-30T00:56:44;2.90;99.90
26691;DHT22;14307;51.718;8.938;2024-01-30T00:59:11;2.90;99.90
26691;DHT22;14307;51.718;8.938;2024-01-30T01:01:38;2.90;99.90
26691;DHT22;14307;51.718;8.938;2024-01-30T01:04:05;2.80;99.90
26691;DHT22;14307;51.718;8.938;2024-01-30T01:06:32;2.80;99.90
26691;DHT22;14307;51.718;8.938;2024-01-30T01:08:58;2.70;99.90
26691;DHT22;14307;51.718;8.938;2024-01-30T01:11:28;2.80;99.90
26691;DHT22;14307;51.718;8.938;2024-01-30T01:13:55;2.80;99.90
26691;DHT22;14307;51.718;8.938;2024-01-30T01:16:21;2.80;99.90
26691;DHT22;14307;51.718;8.938;2024-01-30T01:18:48;2.90;99.90
26691;DHT22;14307;51.718;8.938;2024-01-30T01:21:15;3.10;99.90
26691;DHT22;14307;51.718;8.938;2024-01-30T01:23:42;3.00;99.90
26691;DHT22;14307;51.718;8.938;2024-01-30T01:26:08;3.20;99.90
26691;DHT22;14307;51.718;8.938;2024-01-30T01:28:36;3.20;99.90
26691;DHT22;14307;51.718;8.938;2024-01-30T01:31:03;3.30;99.90
26691;DHT22;14307;51.718;8.938;2024-01-30T01:33:33;3.10;99.90
26691;DHT22;14307;51.718;8.938;2024-01-30T01:36:00;3.00;99.90
26691;DHT22;14307;51.718;8.938;2024-01-30T01:38:29;3.00;99.90
26691;DHT22;14307;51.718;8.938;2024-01-30T01:40:56;3.00;99.90
26691;DHT22;14307;51.718;8.938;2024-01-30T01:43:22;3.10;99.90
26691;DHT22;14307;51.718;8.938;2024-01-30T01:45:49;2.90;99.90
26691;DHT22;14307;51.718;8.938;2024-01-30T01:48:16;3.00;99.90
26691;DHT22;14307;51.718;8.938;2024-01-30T01:50:43;2.90;99.90
26691;DHT22;14307;51.718;8.938;2024-01-30T01:53:10;2.80;99.90
26691;DHT22;14307;51.718;8.938;2024-01-30T01:55:38;2.80;99.90
26691;DHT22;14307;51.718;8.938;2024-01-30T01:58:05;2.90;99.90
26691;DHT22;14307;51.718;8.938;2024-01-30T02:00:32;3.00;99.90
26691;DHT22;14307;51.718;8.938;2024-01-30T02:02:59;2.80;99.90
26691;DHT22;14307;51.718;8.938;2024-01-30T02:05:27;2.80;99.90
26691;DHT22;14307;51.718;8.938;2024-01-30T02:07:54;2.80;99.90
26691;DHT22;14307;51.718;8.938;2024-01-30T02:10:22;2.80;99.90
26691;DHT22;14307;51.718;8.938;2024-01-30T02:12:51;2.90;99.90
26691;DHT22;14307;51.718;8.938;2024-01-30T02:15:18;2.90;99.90
26691;DHT22;14307;51.718;8.938;2024-01-30T02:17:45;2.90;99.90
26691;DHT22;14307;51.718;8.938;2024-01-30T02:20:12;3.00;99.90
26691;DHT22;14307;51.718;8.938;2024-01-30T02:22:40;3.10;99.90
26691;DHT22;14307;51.718;8.938;2024-01-30T02:25:08;3.10;99.90
26691;DHT22;14307;51.718;8.938;2024-01-30T02:27:34;3.00;99.90
26691;DHT22;14307;51.718;8.938;2024-01-30T02:30:01;2.90;99.90
26691;DHT22;14307;51.718;8.938;2024-01-30T02:32:28;2.80;99.90
26691;DHT22;14307;51.718;8.938;2024-01-30T02:34:55;2.70;99.90
26691;DHT22;14307;51.718;8.938;2024-01-30T02:37:21;2.70;99.90
26691;DHT22;14307;51.718;8.938;2024-01-30T02:39:48;2.90;99.90
26691;DHT22;14307;51.718;8.938;2024-01-30T02:42:15;2.90;99.90
26691;DHT22;14307;51.718;8.938;2024-01-30T02:44:42;2.90;99.90
26691;DHT22;14307;51.718;8.938;2024-01-30T02:47:08;2.80;99.90
26691;DHT22;14307;51.718;8.938;2024-01-30T02:49:35;2.90;99.90
26691;DHT22;14307;51.718;8.938;2024-01-30T02:52:03;3.00;99.90
26691;DHT22;14307;51.718;8.938;2024-01-30T02:54:30;3.00;99.90
26691;DHT22;14307;51.718;8.938;2024-01-30T02:56:57;2.90;99.90
26691;DHT22;14307;51.718;8.938;2024-01-30T02:59:24;3.10;99.90
26691;DHT22;14307;51.718;8.938;2024-01-30T03:01:51;3.20;99.90
26691;DHT22;14307;51.718;8.938;2024-01-30T03:04:17;3.30;99.90
26691;DHT22;14307;51.718;8.938;2024-01-30T03:06:45;3.30;99.90
26691;DHT22;14307;51.718;8.938;2024-01-30T03:09:15;3.30;99.90
26691;DHT22;14307;51.718;8.938;2024-01-30T03:11:42;3.30;99.90
26691;DHT22;14307;51.718;8.938;2024-01-30T03:14:08;3.30;99.90
26691;DHT22;14307;51.718;8.938;2024-01-30T03:16:37;3.30;99.90
26691;DHT22;14307;51.718;8.938;2024-01-30T03:19:07;3.40;99.90
26691;DHT22;14307;51.718;8.938;2024-01-30T03:21:35;3.40;99.90
26691;DHT22;14307;51.718;8.938;2024-01-30T03:24:02;3.40;99.90
26691;DHT22;14307;51.718;8.938;2024-01-30T03:26:29;3.40;99.90
26691;DHT22;14307;51.718;8.938;2024-01-30T03:28:56;3.40;99.90
26691;DHT22;14307;51.718;8.938;2024-01-30T03:31:23;3.30;99.90
26691;DHT22;14307;51.718;8.938;2024-01-30T03:33:50;3.30;99.90
26691;DHT22;14307;51.718;8.938;2024-01-30T03:36:17;3.40;99.90
26691;DHT22;14307;51.718;8.938;2024-01-30T03:38:44;3.20;99.90
26691;DHT22;14307;51.718;8.938;2024-01-30T03:41:10;3.30;99.90
26691;DHT22;14307;51.718;8.938;2024-01-30T03:43:37;3.30;99.90
26691;DHT22;14307;51.718;8.938;2024-01-30T03:46:04;3.40;99.90
26691;DHT22;14307;51.718;8.938;2024-01-30T03:48:31;3.50;99.90
26691;DHT22;14307;51.718;8.938;2024-01-30T03:50:58;3.50;99.90
26691;DHT22;14307;51.718;8.938;2024-01-30T03:53:24;3.50;99.90
26691;DHT22;14307;51.718;8.938;2024-01-30T03:55:52;3.50;99.90
26691;DHT22;14307;51.718;8.938;2024-01-30T03:58:18;3.40;99.90
26691;DHT22;14307;51.718;8.938;2024-01-30T04:00:45;3.40;99.90
26691;DHT22;14307;51.718;8.938;2024-01-30T04:03:12;3.30;99.90
26691;DHT22;14307;51.718;8.938;2024-01-30T04:05:39;3.40;99.90
26691;DHT22;14307;51.718;8.938;2024-01-30T04:08:06;3.30;99.90
26691;DHT22;14307;51.718;8.938;2024-01-30T04:10:33;3.20;99.90
26691;DHT22;14307;51.718;8.938;2024-01-30T04:13:00;3.20;99.90
26691;DHT22;14307;51.718;8.938;2024-01-30T04:15:27;3.20;99.90
26691;DHT22;14307;51.718;8.938;2024-01-30T04:17:58;3.20;99.90
26691;DHT22;14307;51.718;8.938;2024-01-30T04:20:26;3.20;99.90
26691;DHT22;14307;51.718;8.938;2024-01-30T04:22:53;3.20;99.90
26691;DHT22;14307;51.718;8.938;2024-01-30T04:25:20;3.30;99.90
26691;DHT22;14307;51.718;8.938;2024-01-30T04:27:47;3.30;99.90
26691;DHT22;14307;51.718;8.938;2024-01-30T04:30:14;3.30;99.90
26691;DHT22;14307;51.718;8.938;2024-01-30T04:32:41;3.40;99.90
26691;DHT22;14307;51.718;8.938;2024-01-30T04:35:08;3.40;99.90
26691;DHT22;14307;51.718;8.938;2024-01-30T04:37:37;3.50;99.90
26691;DHT22;14307;51.718;8.938;2024-01-30T04:40:05;3.50;99.90
26691;DHT22;14307;51.718;8.938;2024-01-30T04:42:32;3.60;99.90
26691;DHT22;14307;51.718;8.938;2024-01-30T04:44:59;3.60;99.90
26691;DHT22;14307;51.718;8.938;2024-01-30T04:47:26;3.60;99.90
26691;DHT22;14307;51.718;8.938;2024-01-30T04:49:53;3.50;99.90
26691;DHT22;14307;51.718;8.938;2024-01-30T04:52:20;3.60;99.90
26691;DHT22;14307;51.718;8.938;2024-01-30T04:54:47;3.70;99.90
26691;DHT22;14307;51.718;8.938;2024-01-30T04:57:14;3.60;99.90
26691;DHT22;14307;51.718;8.938;2024-01-30T04:59:41;3.60;99.90
26691;DHT22;14307;51.718;8.938;2024-01-30T05:02:07;3.60;99.90
26691;DHT22;14307;51.718;8.938;2024-01-30T05:04:34;3.60;99.90
26691;DHT22;14307;51.718;8.938;2024-01-30T05:07:01;3.50;99.90
26691;DHT22;14307;51.718;8.938;2024-01-30T05:09:28;3.50;99.90
26691;DHT22;14307;51.718;8.938;2024-01-30T05:11:55;3.50;99.90
26691;DHT22;14307;51.718;8.938;2024-01-30T05:14:22;3.50;99.90
26691;DHT22;14307;51.718;8.938;2024-01-30T05:16:49;3.50;99.90
26691;DHT22;14307;51.718;8.938;2024-01-30T05:19:16;3.50;99.90
26691;DHT22;14307;51.718;8.938;2024-01-30T05:21:44;3.50;99.90
26691;DHT22;14307;51.718;8.938;2024-01-30T05:24:11;3.50;99.90
26691;DHT22;14307;51.718;8.938;2024-01-30T05:26:37;3.40;99.90
26691;DHT22;14307;51.718;8.938;2024-01-30T05:29:05;3.50;99.90
26691;DHT22;14307;51.718;8.938;2024-01-30T05:31:32;3.50;99.90
26691;DHT22;14307;51.718;8.938;2024-01-30T05:33:59;3.40;99.90
26691;DHT22;14307;51.718;8.938;2024-01-30T05:36:26;3.50;99.90
26691;DHT22;14307;51.718;8.938;2024-01-30T05:38:53;3.60;99.90
26691;DHT22;14307;51.718;8.938;2024-01-30T05:41:20;3.60;99.90
26691;DHT22;14307;51.718;8.938;2024-01-30T05:43:49;3.60;99.90
26691;DHT22;14307;51.718;8.938;2024-01-30T05:46:16;3.60;99.90
26691;DHT22;14307;51.718;8.938;2024-01-30T05:48:43;3.50;99.90
26691;DHT22;14307;51.718;8.938;2024-01-30T05:51:10;3.40;99.90
26691;DHT22;14307;51.718;8.938;2024-01-30T05:53:37;3.40;99.90
26691;DHT22;14307;51.718;8.938;2024-01-30T05:56:04;3.40;99.90
26691;DHT22;14307;51.718;8.938;2024-01-30T05:58:31;3.30;99.90
26691;DHT22;14307;51.718;8.938;2024-01-30T06:00:58;3.30;99.90
26691;DHT22;14307;51.718;8.938;2024-01-30T06:03:25;3.40;99.90
26691;DHT22;14307;51.718;8.938;2024-01-30T06:05:52;3.40;99.90
26691;DHT22;14307;51.718;8.938;2024-01-30T06:08:19;3.40;99.90
26691;DHT22;14307;51.718;8.938;2024-01-30T06:10:45;3.30;99.90
26691;DHT22;14307;51.718;8.938;2024-01-30T06:13:14;3.30;99.90
26691;DHT22;14307;51.718;8.938;2024-01-30T06:15:41;3.40;99.90
26691;DHT22;14307;51.718;8.938;2024-01-30T06:18:08;3.30;99.90
26691;DHT22;14307;51.718;8.938;2024-01-30T06:20:35;3.30;99.90
26691;DHT22;14307;51.718;8.938;2024-01-30T06:23:02;3.30;99.90
26691;DHT22;14307;51.718;8.938;2024-01-30T06:25:29;3.30;99.90
26691;DHT22;14307;51.718;8.938;2024-01-30T06:27:55;3.30;99.90
26691;DHT22;14307;51.718;8.938;2024-01-30T06:30:22;3.40;99.90
26691;DHT22;14307;51.718;8.938;2024-01-30T06:32:49;3.40;99.90
26691;DHT22;14307;51.718;8.938;2024-01-30T06:35:16;3.30;99.90
26691;DHT22;14307;51.718;8.938;2024-01-30T06:37:44;3.20;99.90
26691;DHT22;14307;51.718;8.938;2024-01-30T06:40:11;3.40;99.90
26691;DHT22;14307;51.718;8.938;2024-01-30T06:42:38;3.30;99.90
26691;DHT22;14307;51.718;8.938;2024-01-30T06:45:05;3.20;99.90
26691;DHT22;14307;51.718;8.938;2024-01-30T06:47:32;3.20;99.90
26691;DHT22;14307;51.718;8.938;2024-01-30T06:49:59;3.30;99.90
26691;DHT22;14307;51.718;8.938;2024-01-30T06:52:26;3.20;99.90
26691;DHT22;14307;51.718;8.938;2024-01-30T06:54:53;3.20;99.90
26691;DHT22;14307;51.718;8.938;2024-01-30T06:57:21;3.10;99.90
26691;DHT22;14307;51.718;8.938;2024-01-30T06:59:48;3.10;99.90
26691;DHT22;14307;51.718;8.938;2024-01-30T07:02:14;3.30;99.90
26691;DHT22;14307;51.718;8.938;2024-01-30T07:04:41;3.30;99.90
26691;DHT22;14307;51.718;8.938;2024-01-30T07:07:13;3.30;99.90
26691;DHT22;14307;51.718;8.938;2024-01-30T07:09:41;3.40;99.90
26691;DHT22;14307;51.718;8.938;2024-01-30T07:12:08;3.30;99.90
26691;DHT22;14307;51.718;8.938;2024-01-30T07:14:35;3.30;99.90
26691;DHT22;14307;51.718;8.938;2024-01-30T07:17:02;3.40;99.90
26691;DHT22;14307;51.718;8.938;2024-01-30T07:19:29;3.40;99.90
26691;DHT22;14307;51.718;8.938;2024-01-30T07:21:56;3.40;99.90
26691;DHT22;14307;51.718;8.938;2024-01-30T07:24:23;3.40;99.90
26691;DHT22;14307;51.718;8.938;2024-01-30T07:26:50;3.30;99.90
26691;DHT22;14307;51.718;8.938;2024-01-30T07:29:16;3.50;99.90
26691;DHT22;14307;51.718;8.938;2024-01-30T07:31:44;3.50;99.90
26691;DHT22;14307;51.718;8.938;2024-01-30T07:34:11;3.60;99.90
26691;DHT22;14307;51.718;8.938;2024-01-30T07:36:39;3.60;99.90
26691;DHT22;14307;51.718;8.938;2024-01-30T07:39:05;3.60;99.90
26691;DHT22;14307;51.718;8.938;2024-01-30T07:41:32;3.50;99.90
26691;DHT22;14307;51.718;8.938;2024-01-30T07:43:59;3.50;99.90
26691;DHT22;14307;51.718;8.938;2024-01-30T07:46:26;3.40;99.90
26691;DHT22;14307;51.718;8.938;2024-01-30T07:48:53;3.40;99.90
26691;DHT22;14307;51.718;8.938;2024-01-30T07:51:22;3.40;99.90
26691;DHT22;14307;51.718;8.938;2024-01-30T07:53:49;3.50;99.90
26691;DHT22;14307;51.718;8.938;2024-01-30T07:56:16;3.50;99.90
26691;DHT22;14307;51.718;8.938;2024-01-30T07:58:42;3.60;99.90
26691;DHT22;14307;51.718;8.938;2024-01-30T08:01:09;3.60;99.90
26691;DHT22;14307;51.718;8.938;2024-01-30T08:03:37;3.70;99.90
26691;DHT22;14307;51.718;8.938;2024-01-30T08:06:06;3.80;99.90
26691;DHT22;14307;51.718;8.938;2024-01-30T08:08:33;3.80;99.90
26691;DHT22;14307;51.718;8.938;2024-01-30T08:11:00;3.90;99.90
26691;DHT22;14307;51.718;8.938;2024-01-30T08:13:28;4.00;99.90
26691;DHT22;14307;51.718;8.938;2024-01-30T08:15:54;4.00;99.90
26691;DHT22;14307;51.718;8.938;2024-01-30T08:18:21;4.10;99.90
26691;DHT22;14307;51.718;8.938;2024-01-30T08:20:48;4.10;99.90
26691;DHT22;14307;51.718;8.938;2024-01-30T08:23:15;4.20;99.90
26691;DHT22;14307;51.718;8.938;2024-01-30T08:25:42;4.30;99.90
26691;DHT22;14307;51.718;8.938;2024-01-30T08:28:09;4.30;99.90
26691;DHT22;14307;51.718;8.938;2024-01-30T08:30:36;4.30;99.90
26691;DHT22;14307;51.718;8.938;2024-01-30T08:33:03;4.40;99.90
26691;DHT22;14307;51.718;8.938;2024-01-30T08:35:29;4.40;99.90
26691;DHT22;14307;51.718;8.938;2024-01-30T08:38:00;4.50;99.90
26691;DHT22;14307;51.718;8.938;2024-01-30T08:40:28;4.50;99.90
26691;DHT22;14307;51.718;8.938;2024-01-30T08:42:55;4.70;99.90
26691;DHT22;14307;51.718;8.938;2024-01-30T08:45:22;4.70;99.90
26691;DHT22;14307;51.718;8.938;2024-01-30T08:47:49;4.70;99.90
26691;DHT22;14307;51.718;8.938;2024-01-30T08:50:16;4.70;99.90
26691;DHT22;14307;51.718;8.938;2024-01-30T08:52:42;4.80;99.90
26691;DHT22;14307;51.718;8.938;2024-01-30T08:55:12;4.80;99.90
26691;DHT22;14307;51.718;8.938;2024-01-30T08:57:39;5.00;99.90
26691;DHT22;14307;51.718;8.938;2024-01-30T09:00:06;5.10;99.90
26691;DHT22;14307;51.718;8.938;2024-01-30T09:02:35;5.20;99.90
26691;DHT22;14307;51.718;8.938;2024-01-30T09:05:02;5.30;99.90
26691;DHT22;14307;51.718;8.938;2024-01-30T09:07:29;5.50;99.90
26691;DHT22;14307;51.718;8.938;2024-01-30T09:09:56;5.50;99.90
26691;DHT22;14307;51.718;8.938;2024-01-30T09:12:23;5.50;99.90
26691;DHT22;14307;51.718;8.938;2024-01-30T09:14:50;5.50;99.90
26691;DHT22;14307;51.718;8.938;2024-01-30T09:17:17;5.60;99.90
26691;DHT22;14307;51.718;8.938;2024-01-30T09:19:43;5.60;99.90
26691;DHT22;14307;51.718;8.938;2024-01-30T09:22:10;5.60;99.90
26691;DHT22;14307;51.718;8.938;2024-01-30T09:24:37;5.70;99.90
26691;DHT22;14307;51.718;8.938;2024-01-30T09:27:04;5.80;99.90
26691;DHT22;14307;51.718;8.938;2024-01-30T09:29:31;5.90;99.90
26691;DHT22;14307;51.718;8.938;2024-01-30T09:32:00;6.00;99.90
26691;DHT22;14307;51.718;8.938;2024-01-30T09:34:27;6.10;99.90
26691;DHT22;14307;51.718;8.938;2024-01-30T09:36:54;6.20;99.90
26691;DHT22;14307;51.718;8.938;2024-01-30T09:39:21;6.40;99.90
26691;DHT22;14307;51.718;8.938;2024-01-30T09:44:29;6.60;99.90
26691;DHT22;14307;51.718;8.938;2024-01-30T09:46:57;6.70;99.90
26691;DHT22;14307;51.718;8.938;2024-01-30T09:49:32;6.80;99.90
26691;DHT22;14307;51.718;8.938;2024-01-30T09:52:00;6.90;99.90
26691;DHT22;14307;51.718;8.938;2024-01-30T09:54:30;7.10;99.90
26691;DHT22;14307;51.718;8.938;2024-01-30T09:57:00;7.10;99.90
26691;DHT22;14307;51.718;8.938;2024-01-30T09:59:27;7.30;99.90
26691;DHT22;14307;51.718;8.938;2024-01-30T10:01:54;7.50;99.90
26691;DHT22;14307;51.718;8.938;2024-01-30T10:04:21;7.60;99.90
26691;DHT22;14307;51.718;8.938;2024-01-30T10:06:48;7.80;99.90
26691;DHT22;14307;51.718;8.938;2024-01-30T10:09:15;7.90;99.90
26691;DHT22;14307;51.718;8.938;2024-01-30T10:11:42;8.00;99.90
26691;DHT22;14307;51.718;8.938;2024-01-30T10:14:09;8.10;99.90
26691;DHT22;14307;51.718;8.938;2024-01-30T10:16:36;8.30;99.90
26691;DHT22;14307;51.718;8.938;2024-01-30T10:19:03;8.30;99.90
26691;DHT22;14307;51.718;8.938;2024-01-30T10:21:30;8.40;99.90
26691;DHT22;14307;51.718;8.938;2024-01-30T10:23:56;8.30;99.90
26691;DHT22;14307;51.718;8.938;2024-01-30T10:26:24;8.30;99.90
26691;DHT22;14307;51.718;8.938;2024-01-30T10:28:50;8.20;99.90
26691;DHT22;14307;51.718;8.938;2024-01-30T10:31:18;8.20;99.90
26691;DHT22;14307;51.718;8.938;2024-01-30T10:33:47;8.10;99.90
26691;DHT22;14307;51.718;8.938;2024-01-30T10:36:14;8.20;99.90
26691;DHT22;14307;51.718;8.938;2024-01-30T10:38:46;8.10;99.90
26691;DHT22;14307;51.718;8.938;2024-01-30T10:41:17;8.20;99.90
26691;DHT22;14307;51.718;8.938;2024-01-30T10:43:54;8.20;99.90
26691;DHT22;14307;51.718;8.938;2024-01-30T10:46:29;8.10;99.90
26691;DHT22;14307;51.718;8.938;2024-01-30T10:48:58;8.20;99.90
26691;DHT22;14307;51.718;8.938;2024-01-30T10:51:27;8.20;99.90
26691;DHT22;14307;51.718;8.938;2024-01-30T10:53:56;8.20;99.90
26691;DHT22;14307;51.718;8.938;2024-01-30T10:56:25;8.10;99.90
26691;DHT22;14307;51.718;8.938;2024-01-30T10:58:52;8.10;99.90
26691;DHT22;14307;51.718;8.938;2024-01-30T11:01:21;8.10;99.90
26691;DHT22;14307;51.718;8.938;2024-01-30T11:03:52;8.20;99.90
26691;DHT22;14307;51.718;8.938;2024-01-30T11:06:22;8.10;99.90
26691;DHT22;14307;51.718;8.938;2024-01-30T11:09:06;8.10;99.90
26691;DHT22;14307;51.718;8.938;2024-01-30T11:11:50;8.20;99.90
26691;DHT22;14307;51.718;8.938;2024-01-30T11:14:23;8.30;99.90
26691;DHT22;14307;51.718;8.938;2024-01-30T11:16:50;8.30;99.90
26691;DHT22;14307;51.718;8.938;2024-01-30T11:19:27;8.50;99.90
26691;DHT22;14307;51.718;8.938;2024-01-30T11:21:54;8.70;99.90
26691;DHT22;14307;51.718;8.938;2024-01-30T11:24:24;8.90;99.90
26691;DHT22;14307;51.718;8.938;2024-01-30T11:26:57;9.20;99.90
26691;DHT22;14307;51.718;8.938;2024-01-30T11:29:28;9.30;99.90
26691;DHT22;14307;51.718;8.938;2024-01-30T11:31:58;9.30;99.90
26691;DHT22;14307;51.718;8.938;2024-01-30T11:34:26;9.40;99.90
26691;DHT22;14307;51.718;8.938;2024-01-30T11:36:58;9.70;99.90
26691;DHT22;14307;51.718;8.938;2024-01-30T11:39:26;9.90;99.90
26691;DHT22;14307;51.718;8.938;2024-01-30T11:41:54;10.10;99.90
26691;DHT22;14307;51.718;8.938;2024-01-30T11:44:24;10.10;99.90
26691;DHT22;14307;51.718;8.938;2024-01-30T11:46:52;10.20;99.90
26691;DHT22;14307;51.718;8.938;2024-01-30T11:49:19;10.20;99.90
26691;DHT22;14307;51.718;8.938;2024-01-30T11:51:49;10.40;99.90
26691;DHT22;14307;51.718;8.938;2024-01-30T11:54:16;10.50;99.90
26691;DHT22;14307;51.718;8.938;2024-01-30T11:56:43;10.50;99.90
26691;DHT22;14307;51.718;8.938;2024-01-30T11:59:10;10.50;99.90
26691;DHT22;14307;51.718;8.938;2024-01-30T12:01:37;10.70;99.90
26691;DHT22;14307;51.718;8.938;2024-01-30T12:04:04;10.80;99.90
26691;DHT22;14307;51.718;8.938;2024-01-30T12:06:36;11.00;99.90
26691;DHT22;14307;51.718;8.938;2024-01-30T12:09:03;11.10;99.90
26691;DHT22;14307;51.718;8.938;2024-01-30T12:11:46;11.40;99.90
26691;DHT22;14307;51.718;8.938;2024-01-30T12:14:14;11.60;99.90
26691;DHT22;14307;51.718;8.938;2024-01-30T12:16:41;11.60;99.90
26691;DHT22;14307;51.718;8.938;2024-01-30T12:19:08;11.60;99.90
26691;DHT22;14307;51.718;8.938;2024-01-30T12:21:35;11.70;99.90
26691;DHT22;14307;51.718;8.938;2024-01-30T12:24:02;11.70;99.90
26691;DHT22;14307;51.718;8.938;2024-01-30T12:26:29;11.70;99.90
26691;DHT22;14307;51.718;8.938;2024-01-30T12:28:56;11.70;99.90
26691;DHT22;14307;51.718;8.938;2024-01-30T12:31:28;11.70;99.90
26691;DHT22;14307;51.718;8.938;2024-01-30T12:33:56;11.90;99.90
26691;DHT22;14307;51.718;8.938;2024-01-30T12:36:25;12.00;99.90
26691;DHT22;14307;51.718;8.938;2024-01-30T12:38:52;12.20;99.90
26691;DHT22;14307;51.718;8.938;2024-01-30T12:41:20;12.20;99.90
26691;DHT22;14307;51.718;8.938;2024-01-30T12:43:47;12.20;99.90
26691;DHT22;14307;51.718;8.938;2024-01-30T12:46:17;12.00;99.90
26691;DHT22;14307;51.718;8.938;2024-01-30T12:48:44;12.00;99.90
26691;DHT22;14307;51.718;8.938;2024-01-30T12:51:11;11.80;99.90
26691;DHT22;14307;51.718;8.938;2024-01-30T12:53:37;11.90;99.90
26691;DHT22;14307;51.718;8.938;2024-01-30T12:56:04;11.80;99.90
26691;DHT22;14307;51.718;8.938;2024-01-30T12:58:31;11.80;99.90
26691;DHT22;14307;51.718;8.938;2024-01-30T13:00:58;11.70;99.90
26691;DHT22;14307;51.718;8.938;2024-01-30T13:03:25;11.80;99.90
26691;DHT22;14307;51.718;8.938;2024-01-30T13:05:52;11.80;99.90
26691;DHT22;14307;51.718;8.938;2024-01-30T13:08:19;11.60;99.90
26691;DHT22;14307;51.718;8.938;2024-01-30T13:10:46;11.60;99.90
26691;DHT22;14307;51.718;8.938;2024-01-30T13:13:16;11.50;99.90
26691;DHT22;14307;51.718;8.938;2024-01-30T13:15:47;11.60;99.90
26691;DHT22;14307;51.718;8.938;2024-01-30T13:18:14;11.50;99.90
26691;DHT22;14307;51.718;8.938;2024-01-30T13:20:41;11.50;99.90
26691;DHT22;14307;51.718;8.938;2024-01-30T13:23:08;11.50;99.90
26691;DHT22;14307;51.718;8.938;2024-01-30T13:25:35;11.40;99.90
26691;DHT22;14307;51.718;8.938;2024-01-30T13:28:02;11.50;99.90
26691;DHT22;14307;51.718;8.938;2024-01-30T13:30:29;11.60;99.90
26691;DHT22;14307;51.718;8.938;2024-01-30T13:32:56;11.70;99.90
26691;DHT22;14307;51.718;8.938;2024-01-30T13:35:23;11.80;99.90
26691;DHT22;14307;51.718;8.938;2024-01-30T13:37:49;11.90;99.90
26691;DHT22;14307;51.718;8.938;2024-01-30T13:40:16;12.00;99.90
26691;DHT22;14307;51.718;8.938;2024-01-30T13:42:43;12.10;99.90
26691;DHT22;14307;51.718;8.938;2024-01-30T13:45:10;12.20;99.90
26691;DHT22;14307;51.718;8.938;2024-01-30T13:47:37;12.20;99.90
26691;DHT22;14307;51.718;8.938;2024-01-30T13:50:05;12.30;99.90
26691;DHT22;14307;51.718;8.938;2024-01-30T13:52:33;12.30;99.90
26691;DHT22;14307;51.718;8.938;2024-01-30T13:55:10;12.30;99.90
26691;DHT22;14307;51.718;8.938;2024-01-30T13:57:37;12.20;99.90
26691;DHT22;14307;51.718;8.938;2024-01-30T14:00:05;12.30;99.90
26691;DHT22;14307;51.718;8.938;2024-01-30T14:02:38;12.30;99.90
26691;DHT22;14307;51.718;8.938;2024-01-30T14:05:05;12.30;99.90
26691;DHT22;14307;51.718;8.938;2024-01-30T14:07:33;12.20;99.90
26691;DHT22;14307;51.718;8.938;2024-01-30T14:10:00;12.30;99.90
26691;DHT22;14307;51.718;8.938;2024-01-30T14:12:27;12.30;99.90
26691;DHT22;14307;51.718;8.938;2024-01-30T14:14:55;12.20;99.90
26691;DHT22;14307;51.718;8.938;2024-01-30T14:17:21;12.20;99.90
26691;DHT22;14307;51.718;8.938;2024-01-30T14:19:48;12.20;99.90
26691;DHT22;14307;51.718;8.938;2024-01-30T14:22:15;12.20;99.90
26691;DHT22;14307;51.718;8.938;2024-01-30T14:24:42;12.20;99.90
26691;DHT22;14307;51.718;8.938;2024-01-30T14:27:10;12.10;99.90
26691;DHT22;14307;51.718;8.938;2024-01-30T14:29:37;12.00;99.90
26691;DHT22;14307;51.718;8.938;2024-01-30T14:32:04;12.00;99.90
26691;DHT22;14307;51.718;8.938;2024-01-30T14:34:31;11.90;99.90
26691;DHT22;14307;51.718;8.938;2024-01-30T14:36:58;12.00;99.90
26691;DHT22;14307;51.718;8.938;2024-01-30T14:39:26;11.90;99.90
26691;DHT22;14307;51.718;8.938;2024-01-30T14:41:53;11.90;99.90
26691;DHT22;14307;51.718;8.938;2024-01-30T14:44:20;11.90;99.90
26691;DHT22;14307;51.718;8.938;2024-01-30T14:46:47;11.80;99.90
26691;DHT22;14307;51.718;8.938;2024-01-30T14:49:13;11.80;99.90
26691;DHT22;14307;51.718;8.938;2024-01-30T14:51:42;11.80;99.90
26691;DHT22;14307;51.718;8.938;2024-01-30T14:54:09;11.80;99.90
26691;DHT22;14307;51.718;8.938;2024-01-30T14:56:36;11.70;99.90
26691;DHT22;14307;51.718;8.938;2024-01-30T14:59:03;11.70;99.90
26691;DHT22;14307;51.718;8.938;2024-01-30T15:01:29;11.70;99.90
26691;DHT22;14307;51.718;8.938;2024-01-30T15:03:56;11.70;99.90
26691;DHT22;14307;51.718;8.938;2024-01-30T15:06:23;11.60;99.90
26691;DHT22;14307;51.718;8.938;2024-01-30T15:08:52;11.70;99.90
26691;DHT22;14307;51.718;8.938;2024-01-30T15:11:20;11.60;99.90
26691;DHT22;14307;51.718;8.938;2024-01-30T15:13:46;11.70;99.90
26691;DHT22;14307;51.718;8.938;2024-01-30T15:16:13;11.70;99.90
26691;DHT22;14307;51.718;8.938;2024-01-30T15:18:40;11.60;99.90
26691;DHT22;14307;51.718;8.938;2024-01-30T15:21:07;11.60;99.90
26691;DHT22;14307;51.718;8.938;2024-01-30T15:23:34;11.50;99.90
26691;DHT22;14307;51.718;8.938;2024-01-30T15:26:01;11.50;99.90
26691;DHT22;14307;51.718;8.938;2024-01-30T15:28:36;11.50;99.90
26691;DHT22;14307;51.718;8.938;2024-01-30T15:31:03;11.50;99.90
26691;DHT22;14307;51.718;8.938;2024-01-30T15:33:30;11.50;99.90
26691;DHT22;14307;51.718;8.938;2024-01-30T15:36:00;11.60;99.90
26691;DHT22;14307;51.718;8.938;2024-01-30T15:38:28;11.40;99.90
26691;DHT22;14307;51.718;8.938;2024-01-30T15:40:58;11.40;99.90
26691;DHT22;14307;51.718;8.938;2024-01-30T15:43:25;11.40;99.90
26691;DHT22;14307;51.718;8.938;2024-01-30T15:45:52;11.30;99.90